Time;durP1;ratioP1;P1;durP2;ratioP2;P2;SDS_P1;SDS_P2;PMS_P1;PMS_P2;Temp;Humidity;BMP_temperature;BMP_pressure;BME280_temperature;BME280_humidity;BME280_pressure;Samples;Min_cycle;Max_cycle;Signal;HPM_P1;HPM_P2
2023/11/20 00:00:12;;;;;;;30.83;14.48;;;4.20;99.90;;;;;;4835505;29;20056;-76
2023/11/20 00:02:42;;;;;;;32.28;12.80;;;4.20;99.90;;;;;;4816535;29;20054;-76
2023/11/20 00:05:11;;;;;;;28.17;12.40;;;4.20;99.90;;;;;;4797141;29;20072;-73
2023/11/20 00:07:40;;;;;;;31.70;13.48;;;4.20;99.90;;;;;;4813330;29;20057;-74
2023/11/20 00:10:09;;;;;;;27.40;13.27;;;4.10;99.90;;;;;;4808406;29;20064;-74
2023/11/20 00:12:37;;;;;;;31.35;13.48;;;4.10;99.90;;;;;;4807977;29;20060;-74
2023/11/20 00:15:08;;;;;;;29.77;12.75;;;4.10;99.90;;;;;;4812868;29;20053;-74
2023/11/20 00:17:37;;;;;;;24.95;11.63;;;4.20;99.90;;;;;;4815396;29;20072;-73
2023/11/20 00:20:06;;;;;;;25.70;12.48;;;4.20;99.90;;;;;;4813882;29;20576;-73
2023/11/20 00:22:35;;;;;;;24.58;12.23;;;4.20;99.90;;;;;;4815041;29;20049;-75
2023/11/20 00:25:04;;;;;;;27.30;12.63;;;4.20;99.90;;;;;;4828347;29;20053;-73
2023/11/20 00:27:32;;;;;;;24.13;11.63;;;4.20;99.90;;;;;;4814755;29;20984;-74
2023/11/20 00:30:01;;;;;;;23.60;11.25;;;4.20;99.90;;;;;;4814189;29;20761;-74
2023/11/20 00:32:31;;;;;;;26.20;11.43;;;4.20;99.90;;;;;;4838214;29;20102;-74
2023/11/20 00:34:59;;;;;;;22.67;10.57;;;4.20;99.90;;;;;;4817259;29;20937;-73
2023/11/20 00:37:28;;;;;;;23.63;10.70;;;4.20;99.90;;;;;;4807435;29;20433;-74
2023/11/20 00:39:56;;;;;;;26.20;11.10;;;4.20;99.90;;;;;;4800409;29;20872;-74
2023/11/20 00:42:24;;;;;;;24.23;11.18;;;4.20;99.90;;;;;;4831177;29;20783;-74
2023/11/20 00:44:53;;;;;;;27.35;11.45;;;4.20;99.90;;;;;;4814118;29;20064;-74
2023/11/20 00:47:21;;;;;;;21.13;10.77;;;4.20;99.90;;;;;;4813280;29;21094;-74
2023/11/20 00:49:51;;;;;;;21.83;10.23;;;4.20;99.90;;;;;;4826264;29;20049;-74
2023/11/20 00:52:19;;;;;;;25.75;11.35;;;4.20;99.90;;;;;;4826216;29;20425;-73
2023/11/20 00:54:47;;;;;;;25.42;11.55;;;4.20;99.90;;;;;;4838769;29;20056;-74
2023/11/20 00:57:16;;;;;;;23.25;11.65;;;4.20;99.90;;;;;;4818621;29;22196;-73
2023/11/20 00:59:46;;;;;;;22.63;11.30;;;4.20;99.90;;;;;;4819118;29;20070;-74
2023/11/20 01:02:14;;;;;;;27.48;11.68;;;4.20;99.90;;;;;;4800200;29;20109;-73
2023/11/20 01:04:43;;;;;;;23.63;11.52;;;4.20;99.90;;;;;;4838459;29;20057;-73
2023/11/20 01:07:12;;;;;;;23.60;11.40;;;4.20;99.90;;;;;;4819425;29;20064;-74
2023/11/20 01:09:42;;;;;;;23.42;11.57;;;4.20;99.90;;;;;;4819819;29;20080;-74
2023/11/20 01:12:10;;;;;;;20.95;11.18;;;4.20;99.90;;;;;;4817154;29;20604;-74
2023/11/20 01:14:38;;;;;;;25.80;11.38;;;4.20;99.90;;;;;;4818759;29;20057;-73
2023/11/20 01:17:08;;;;;;;23.25;11.10;;;4.20;99.90;;;;;;4845993;29;20068;-73
2023/11/20 01:19:36;;;;;;;21.58;10.32;;;4.20;99.90;;;;;;4843248;29;20048;-74
2023/11/20 01:22:05;;;;;;;22.83;10.82;;;4.10;99.90;;;;;;4818836;29;20045;-74
2023/11/20 01:24:35;;;;;;;19.60;10.55;;;4.20;99.90;;;;;;4807784;29;20203;-73
2023/11/20 01:27:04;;;;;;;21.20;10.88;;;4.10;99.90;;;;;;4836796;29;20509;-73
2023/11/20 01:29:32;;;;;;;25.35;11.80;;;4.10;99.90;;;;;;4803700;29;20057;-73
2023/11/20 01:32:01;;;;;;;20.65;10.07;;;4.10;99.90;;;;;;4817302;29;20045;-74
2023/11/20 01:34:29;;;;;;;22.40;10.95;;;4.00;99.90;;;;;;4817529;29;20147;-74
2023/11/20 01:36:57;;;;;;;26.55;10.07;;;4.00;99.90;;;;;;4818464;29;20065;-74
2023/11/20 01:39:26;;;;;;;21.90;10.32;;;4.00;99.90;;;;;;4816351;29;20053;-74
2023/11/20 01:41:55;;;;;;;22.90;10.95;;;4.00;99.90;;;;;;4803080;29;22232;-73
2023/11/20 01:44:24;;;;;;;22.98;10.05;;;4.00;99.90;;;;;;4831292;29;20041;-73
2023/11/20 01:46:52;;;;;;;21.88;10.55;;;4.00;99.90;;;;;;4806197;29;20045;-74
2023/11/20 01:49:21;;;;;;;23.20;10.95;;;4.00;99.90;;;;;;4832717;29;20061;-73
2023/11/20 01:51:51;;;;;;;24.92;9.73;;;4.00;99.90;;;;;;4820449;29;20084;-74
2023/11/20 01:54:21;;;;;;;20.40;9.77;;;4.00;99.90;;;;;;4815419;29;20057;-74
2023/11/20 01:56:49;;;;;;;19.10;9.95;;;4.10;99.90;;;;;;4816312;29;20068;-74
2023/11/20 01:59:21;;;;;;;20.58;9.95;;;4.00;99.90;;;;;;4828367;29;20059;-74
2023/11/20 02:01:49;;;;;;;21.95;10.82;;;4.00;99.90;;;;;;4832356;29;22276;-75
2023/11/20 02:04:21;;;;;;;23.95;10.70;;;4.00;99.90;;;;;;4830268;29;20635;-73
2023/11/20 02:06:50;;;;;;;25.70;12.35;;;4.00;99.90;;;;;;4814835;29;20109;-73
2023/11/20 02:09:18;;;;;;;21.30;11.43;;;3.90;99.90;;;;;;4816727;29;21469;-74
2023/11/20 02:11:47;;;;;;;25.23;12.40;;;3.90;99.90;;;;;;4816239;29;20085;-73
2023/11/20 02:14:17;;;;;;;24.80;11.38;;;3.90;99.90;;;;;;4819154;29;20170;-73
2023/11/20 02:16:46;;;;;;;23.95;11.02;;;3.90;99.90;;;;;;4818391;29;20148;-73
2023/11/20 02:19:15;;;;;;;22.88;10.98;;;3.90;99.90;;;;;;4839094;29;20080;-74
2023/11/20 02:21:44;;;;;;;24.60;11.05;;;3.90;99.90;;;;;;4816070;29;20053;-74
2023/11/20 02:24:14;;;;;;;24.92;10.70;;;3.90;99.90;;;;;;4817825;29;20093;-75
2023/11/20 02:26:57;;;;;;;23.60;11.57;;;3.90;99.90;;;;;;4821856;29;20762;-76
2023/11/20 02:29:42;;;;;;;27.77;11.48;;;3.90;99.90;;;;;;4826224;29;20058;-76
2023/11/20 02:32:10;;;;;;;23.25;11.20;;;3.90;99.90;;;;;;4819994;29;22240;-76
2023/11/20 02:34:40;;;;;;;21.15;10.75;;;3.90;99.90;;;;;;4834228;29;20034;-76
2023/11/20 02:37:08;;;;;;;20.77;10.18;;;3.90;99.90;;;;;;4817654;29;20057;-76
2023/11/20 02:39:37;;;;;;;28.85;12.27;;;3.90;99.90;;;;;;4819944;29;20064;-76
2023/11/20 02:42:06;;;;;;;25.45;11.25;;;3.80;99.90;;;;;;4832281;29;20818;-75
2023/11/20 02:44:37;;;;;;;25.50;10.80;;;3.80;99.90;;;;;;4838940;29;20053;-76
2023/11/20 02:47:07;;;;;;;28.23;11.70;;;3.70;99.90;;;;;;4816529;29;20410;-75
2023/11/20 02:49:36;;;;;;;27.17;11.68;;;3.70;99.90;;;;;;4825843;29;20061;-76
2023/11/20 02:52:05;;;;;;;24.48;11.55;;;3.70;99.90;;;;;;4820033;29;20224;-76
2023/11/20 02:54:44;;;;;;;28.05;11.82;;;3.70;99.90;;;;;;4826844;29;20180;-76
2023/11/20 02:57:18;;;;;;;25.23;11.05;;;3.60;99.90;;;;;;4821683;29;20332;-76
2023/11/20 02:59:47;;;;;;;26.08;11.18;;;3.60;99.90;;;;;;4818923;29;20063;-76
2023/11/20 03:02:16;;;;;;;21.83;10.07;;;3.60;99.90;;;;;;4818440;29;20616;-75
2023/11/20 03:04:45;;;;;;;26.52;11.43;;;3.50;99.90;;;;;;4820282;29;20920;-76
2023/11/20 03:07:14;;;;;;;27.90;12.15;;;3.50;99.90;;;;;;4806830;29;20068;-75
2023/11/20 03:09:43;;;;;;;29.30;11.73;;;3.50;99.90;;;;;;4809635;29;25790;-75
2023/11/20 03:12:12;;;;;;;28.27;11.30;;;3.40;99.90;;;;;;4814356;29;20182;-77
2023/11/20 03:14:40;;;;;;;27.25;12.63;;;3.40;99.90;;;;;;4816066;29;20817;-77
2023/11/20 03:17:08;;;;;;;27.30;11.00;;;3.40;99.90;;;;;;4837052;29;20060;-78
2023/11/20 03:19:39;;;;;;;32.63;12.20;;;3.40;99.90;;;;;;4828783;29;20140;-76
2023/11/20 03:22:08;;;;;;;27.75;11.50;;;3.40;99.90;;;;;;4810701;29;20057;-76
2023/11/20 03:24:37;;;;;;;24.20;10.80;;;3.30;99.90;;;;;;4817920;29;20045;-75
2023/11/20 03:27:05;;;;;;;27.90;12.18;;;3.30;99.90;;;;;;4820350;29;20133;-76
2023/11/20 03:29:34;;;;;;;31.20;13.93;;;3.30;99.90;;;;;;4817989;29;20433;-76
2023/11/20 03:32:02;;;;;;;33.58;13.38;;;3.30;99.90;;;;;;4818594;29;20078;-77
2023/11/20 03:34:30;;;;;;;33.17;12.73;;;3.30;99.90;;;;;;4817416;29;20116;-78
2023/11/20 03:37:01;;;;;;;29.58;12.63;;;3.30;99.90;;;;;;4816264;29;20131;-79
2023/11/20 03:39:29;;;;;;;31.50;12.77;;;3.30;99.90;;;;;;4839287;29;20061;-78
2023/11/20 03:41:58;;;;;;;25.15;12.48;;;3.30;99.90;;;;;;4817306;29;21572;-78
2023/11/20 03:44:26;;;;;;;25.35;11.93;;;3.30;99.90;;;;;;4815110;29;20116;-77
2023/11/20 03:46:54;;;;;;;25.40;11.48;;;3.30;99.90;;;;;;4818299;29;20644;-77
2023/11/20 03:49:23;;;;;;;28.35;12.40;;;3.30;99.90;;;;;;4820928;29;20181;-77
2023/11/20 03:51:51;;;;;;;27.25;12.20;;;3.30;99.90;;;;;;4810584;29;20152;-78
2023/11/20 03:54:21;;;;;;;25.05;12.07;;;3.30;99.90;;;;;;4821026;29;20110;-77
2023/11/20 03:56:49;;;;;;;26.10;10.82;;;3.40;99.90;;;;;;4818261;29;20120;-77
2023/11/20 03:59:18;;;;;;;23.92;11.48;;;3.40;99.90;;;;;;4820165;29;22304;-77
2023/11/20 04:01:46;;;;;;;21.73;10.60;;;3.40;99.90;;;;;;4836681;29;20067;-77
2023/11/20 04:04:15;;;;;;;22.80;10.68;;;3.40;99.90;;;;;;4818720;29;20525;-77
2023/11/20 04:06:43;;;;;;;25.30;10.93;;;3.40;99.90;;;;;;4836501;29;20272;-77
2023/11/20 04:09:12;;;;;;;21.83;9.82;;;3.40;99.90;;;;;;4823709;29;20057;-77
2023/11/20 04:11:42;;;;;;;24.98;11.52;;;3.50;99.90;;;;;;4839421;29;20053;-77
2023/11/20 04:14:11;;;;;;;20.90;10.25;;;3.50;99.90;;;;;;4818221;29;20064;-77
2023/11/20 04:16:40;;;;;;;20.40;9.90;;;3.50;99.90;;;;;;4831154;29;20085;-75
2023/11/20 04:19:09;;;;;;;25.63;10.70;;;3.50;99.90;;;;;;4807013;29;22395;-75
2023/11/20 04:21:39;;;;;;;19.48;9.55;;;3.50;99.90;;;;;;4804914;29;20068;-76
2023/11/20 04:24:08;;;;;;;26.45;11.85;;;3.40;99.90;;;;;;4836270;29;20049;-75
2023/11/20 04:26:37;;;;;;;21.63;10.00;;;3.40;99.90;;;;;;4824523;29;20422;-75
2023/11/20 04:29:07;;;;;;;24.58;10.52;;;3.40;99.90;;;;;;4821672;29;20049;-76
2023/11/20 04:31:35;;;;;;;20.88;10.02;;;3.30;99.90;;;;;;4828339;29;20145;-75
2023/11/20 04:34:04;;;;;;;26.02;10.75;;;3.30;99.90;;;;;;4823620;29;20061;-76
2023/11/20 04:36:33;;;;;;;22.77;10.70;;;3.30;99.90;;;;;;4839372;29;20081;-75
2023/11/20 04:39:01;;;;;;;25.30;10.60;;;3.30;99.90;;;;;;4839872;29;20858;-76
2023/11/20 04:41:31;;;;;;;26.52;10.75;;;3.30;99.90;;;;;;4826491;29;20068;-76
2023/11/20 04:43:59;;;;;;;23.42;11.30;;;3.30;99.90;;;;;;4822988;29;20071;-75
2023/11/20 04:46:29;;;;;;;28.02;10.73;;;3.30;99.90;;;;;;4824239;29;20049;-76
2023/11/20 04:48:57;;;;;;;28.42;12.77;;;3.30;99.90;;;;;;4832731;29;20132;-75
2023/11/20 04:51:26;;;;;;;28.50;13.43;;;3.20;99.90;;;;;;4819433;29;20091;-75
2023/11/20 04:53:54;;;;;;;24.35;11.60;;;3.30;99.90;;;;;;4826181;29;20057;-75
2023/11/20 04:56:23;;;;;;;28.85;12.32;;;3.40;99.90;;;;;;4829742;29;20064;-75
2023/11/20 04:58:51;;;;;;;49.88;18.02;;;3.40;99.90;;;;;;4846395;29;20172;-75
2023/11/20 05:01:22;;;;;;;39.83;16.15;;;3.40;99.90;;;;;;4825223;29;20061;-75
2023/11/20 05:03:52;;;;;;;32.97;14.77;;;3.40;99.90;;;;;;4831229;29;20049;-75
2023/11/20 05:06:20;;;;;;;29.08;14.55;;;3.40;99.90;;;;;;4838309;29;20164;-75
2023/11/20 05:08:49;;;;;;;33.35;14.88;;;3.40;99.90;;;;;;4830926;29;20065;-74
2023/11/20 05:11:17;;;;;;;27.10;13.50;;;3.40;99.90;;;;;;4826853;29;20097;-75
2023/11/20 05:13:46;;;;;;;32.22;13.85;;;3.40;99.90;;;;;;4826708;29;20441;-75
2023/11/20 05:16:14;;;;;;;30.20;13.50;;;3.40;99.90;;;;;;4846277;29;20057;-75
2023/11/20 05:18:43;;;;;;;29.13;13.98;;;3.40;99.90;;;;;;4829154;29;20103;-75
2023/11/20 05:21:12;;;;;;;28.10;14.02;;;3.40;99.90;;;;;;4826213;29;20057;-75
2023/11/20 05:23:41;;;;;;;34.08;16.55;;;3.40;99.90;;;;;;4823799;29;22173;-75
2023/11/20 05:26:09;;;;;;;39.15;16.73;;;3.40;99.90;;;;;;4822898;29;20053;-75
2023/11/20 05:28:37;;;;;;;37.75;16.63;;;3.40;99.90;;;;;;4824643;29;20077;-75
2023/11/20 05:31:06;;;;;;;34.35;16.42;;;3.40;99.90;;;;;;4827019;29;20053;-75
2023/11/20 05:33:34;;;;;;;34.92;16.42;;;3.40;99.90;;;;;;4827488;29;20144;-75
2023/11/20 05:36:03;;;;;;;32.00;15.25;;;3.40;99.90;;;;;;4825658;29;20060;-75
2023/11/20 05:38:33;;;;;;;32.83;15.50;;;3.30;99.90;;;;;;4839858;29;20834;-75
2023/11/20 05:41:01;;;;;;;32.58;15.05;;;3.30;99.90;;;;;;4827824;29;20737;-75
2023/11/20 05:43:30;;;;;;;35.00;15.00;;;3.30;99.90;;;;;;4843631;29;20046;-75
2023/11/20 05:45:58;;;;;;;30.17;13.73;;;3.30;99.90;;;;;;4824879;29;20192;-75
2023/11/20 05:48:26;;;;;;;29.15;14.10;;;3.30;99.90;;;;;;4826143;29;20176;-75
2023/11/20 05:50:55;;;;;;;31.55;15.48;;;3.20;99.90;;;;;;4827367;29;20053;-75
2023/11/20 05:53:23;;;;;;;26.05;13.93;;;3.20;99.90;;;;;;4838937;29;20061;-75
2023/11/20 05:55:53;;;;;;;29.27;13.38;;;3.20;99.90;;;;;;4822813;29;20045;-75
2023/11/20 05:58:21;;;;;;;33.97;15.98;;;3.20;99.90;;;;;;4823591;29;20112;-76
2023/11/20 06:00:50;;;;;;;39.92;17.23;;;3.10;99.90;;;;;;4822128;29;20062;-75
2023/11/20 06:03:19;;;;;;;41.67;18.65;;;3.10;99.90;;;;;;4823911;29;20719;-75
2023/11/20 06:05:47;;;;;;;37.65;16.65;;;3.10;99.90;;;;;;4822407;29;20144;-76
2023/11/20 06:08:15;;;;;;;37.60;16.13;;;3.10;99.90;;;;;;4827051;29;20057;-75
2023/11/20 06:10:44;;;;;;;32.72;16.17;;;3.10;99.90;;;;;;4823617;29;20498;-76
2023/11/20 06:13:13;;;;;;;37.97;18.00;;;3.10;99.90;;;;;;4828264;29;20782;-76
2023/11/20 06:15:42;;;;;;;40.35;17.35;;;3.00;99.90;;;;;;4830841;29;20049;-77
2023/11/20 06:18:11;;;;;;;40.55;18.27;;;3.00;99.90;;;;;;4837059;29;20670;-76
2023/11/20 06:20:39;;;;;;;42.70;19.42;;;3.00;99.90;;;;;;4844276;29;20080;-79
2023/11/20 06:23:09;;;;;;;44.33;18.58;;;3.00;99.90;;;;;;4834124;29;20781;-79
2023/11/20 06:25:38;;;;;;;43.97;18.60;;;3.00;99.90;;;;;;4847311;29;20050;-79
2023/11/20 06:28:06;;;;;;;52.42;21.55;;;3.00;99.90;;;;;;4844628;29;20053;-79
2023/11/20 06:30:36;;;;;;;45.30;20.23;;;3.00;99.90;;;;;;4833896;29;20082;-78
2023/11/20 06:33:05;;;;;;;51.67;20.67;;;3.00;99.90;;;;;;4831847;29;20177;-78
2023/11/20 06:35:33;;;;;;;50.35;21.25;;;3.00;99.90;;;;;;4833614;29;20042;-79
2023/11/20 06:38:01;;;;;;;51.95;24.20;;;3.00;99.90;;;;;;4836093;29;20743;-79
2023/11/20 06:40:30;;;;;;;56.17;22.65;;;3.00;99.90;;;;;;4832770;29;20053;-78
2023/11/20 06:42:59;;;;;;;48.38;20.40;;;3.00;99.90;;;;;;4833119;29;20107;-79
2023/11/20 06:45:28;;;;;;;52.42;22.98;;;3.00;99.90;;;;;;4845927;29;20183;-79
2023/11/20 06:47:58;;;;;;;45.85;21.80;;;3.00;99.90;;;;;;4852531;29;20937;-79
2023/11/20 06:50:27;;;;;;;54.45;24.13;;;3.00;99.90;;;;;;4853091;29;20205;-79
2023/11/20 06:52:55;;;;;;;56.63;23.98;;;3.10;99.90;;;;;;4856046;29;20091;-78
2023/11/20 06:55:25;;;;;;;55.58;23.13;;;3.10;99.90;;;;;;4857455;29;20049;-79
2023/11/20 06:57:53;;;;;;;53.35;24.92;;;3.10;99.90;;;;;;4830454;29;20060;-79
2023/11/20 07:00:22;;;;;;;58.72;25.38;;;3.10;99.90;;;;;;4832025;29;20139;-79
2023/11/20 07:02:52;;;;;;;55.42;26.15;;;3.10;99.90;;;;;;4828415;29;20134;-78
2023/11/20 07:05:22;;;;;;;52.95;24.08;;;3.10;99.90;;;;;;4828595;29;20562;-77
2023/11/20 07:07:53;;;;;;;63.60;27.55;;;3.10;99.90;;;;;;4816675;29;20505;-77
2023/11/20 07:10:25;;;;;;;57.47;28.15;;;3.10;99.90;;;;;;4817171;29;20054;-77
2023/11/20 07:12:54;;;;;;;66.88;29.42;;;3.10;99.90;;;;;;4816970;29;20085;-77
2023/11/20 07:15:24;;;;;;;73.07;32.30;;;3.20;99.90;;;;;;4817402;29;20696;-77
2023/11/20 07:17:53;;;;;;;85.07;33.83;;;3.20;99.90;;;;;;4834294;29;20045;-77
2023/11/20 07:20:23;;;;;;;310.42;64.72;;;3.30;99.90;;;;;;4815871;29;21022;-77
2023/11/20 07:22:51;;;;;;;120.43;45.78;;;3.40;99.90;;;;;;4816629;29;20544;-76
2023/11/20 07:25:19;;;;;;;83.43;34.38;;;3.50;99.90;;;;;;4827813;29;20056;-74
2023/11/20 07:27:48;;;;;;;86.38;36.33;;;3.60;99.90;;;;;;4817144;29;20489;-74
2023/11/20 07:30:16;;;;;;;91.28;34.65;;;3.70;99.90;;;;;;4801643;29;20430;-74
2023/11/20 07:32:48;;;;;;;81.45;32.67;;;3.90;99.90;;;;;;4800139;29;20060;-75
2023/11/20 07:35:17;;;;;;;71.72;29.33;;;4.00;99.90;;;;;;4797957;29;20053;-75
2023/11/20 07:37:46;;;;;;;56.30;23.48;;;4.30;99.90;;;;;;4837163;29;20061;-74
2023/11/20 07:40:15;;;;;;;67.82;23.83;;;4.30;99.90;;;;;;4801032;29;20688;-75
2023/11/20 07:42:44;;;;;;;59.28;21.55;;;4.40;99.90;;;;;;4816522;29;20120;-75
2023/11/20 07:45:13;;;;;;;50.30;20.70;;;4.50;99.90;;;;;;4814441;29;20061;-75
2023/11/20 07:47:42;;;;;;;63.55;23.13;;;4.50;99.90;;;;;;4818254;29;20061;-74
2023/11/20 07:50:12;;;;;;;68.22;24.67;;;4.50;99.90;;;;;;4817311;29;20054;-75
2023/11/20 07:52:41;;;;;;;75.35;26.02;;;4.60;99.90;;;;;;4815933;29;20490;-75
2023/11/20 07:55:12;;;;;;;61.38;23.40;;;4.60;99.90;;;;;;4816743;29;20406;-75
2023/11/20 07:57:41;;;;;;;62.45;22.77;;;4.70;99.90;;;;;;4818679;29;20065;-75
2023/11/20 08:00:11;;;;;;;55.38;21.58;;;4.70;99.90;;;;;;4832768;29;20478;-75
2023/11/20 08:02:40;;;;;;;51.17;20.23;;;4.70;99.90;;;;;;4815252;29;20061;-74
2023/11/20 08:05:09;;;;;;;49.15;21.67;;;4.70;99.90;;;;;;4825568;29;20053;-75
2023/11/20 08:07:38;;;;;;;49.00;21.67;;;4.80;99.90;;;;;;4828087;29;20084;-75
2023/11/20 08:10:09;;;;;;;38.05;17.70;;;4.80;99.90;;;;;;4831137;29;20061;-75
2023/11/20 08:12:40;;;;;;;41.65;17.58;;;4.80;99.90;;;;;;4824044;29;20061;-74
2023/11/20 08:15:11;;;;;;;37.13;17.73;;;4.80;99.90;;;;;;4825005;29;20057;-78
2023/11/20 08:17:41;;;;;;;41.20;19.20;;;4.80;99.90;;;;;;4839950;29;20049;-77
2023/11/20 08:20:10;;;;;;;43.17;20.17;;;4.90;99.90;;;;;;4824595;29;20136;-77
2023/11/20 08:22:40;;;;;;;40.17;18.65;;;5.00;99.90;;;;;;4832009;29;20426;-77
2023/11/20 08:25:09;;;;;;;41.28;19.33;;;5.10;99.90;;;;;;4846394;29;20063;-77
2023/11/20 08:27:40;;;;;;;41.03;19.52;;;5.20;99.90;;;;;;4832136;29;20056;-77
2023/11/20 08:30:12;;;;;;;35.00;16.48;;;5.20;99.90;;;;;;4841759;29;20081;-77
2023/11/20 08:32:40;;;;;;;33.90;16.38;;;5.20;99.90;;;;;;4828606;29;20205;-77
2023/11/20 08:35:10;;;;;;;32.67;15.45;;;5.20;99.90;;;;;;4827973;29;20056;-77
2023/11/20 08:37:39;;;;;;;37.25;18.65;;;5.30;99.90;;;;;;4843850;29;20063;-77
2023/11/20 08:40:09;;;;;;;39.42;18.00;;;5.40;99.90;;;;;;4850200;29;20676;-77
2023/11/20 08:42:39;;;;;;;34.58;16.88;;;5.40;99.90;;;;;;4835496;29;20068;-78
2023/11/20 08:45:08;;;;;;;38.53;16.90;;;5.50;99.90;;;;;;4833198;29;20667;-77
2023/11/20 08:47:39;;;;;;;39.65;17.38;;;5.70;99.90;;;;;;4815321;29;22303;-76
2023/11/20 08:50:09;;;;;;;43.85;17.63;;;5.80;99.90;;;;;;4853177;29;20055;-77
2023/11/20 08:52:38;;;;;;;31.63;14.77;;;5.80;99.90;;;;;;4840291;29;20543;-77
2023/11/20 08:55:08;;;;;;;39.83;17.42;;;5.80;99.90;;;;;;4828871;29;20553;-78
2023/11/20 08:57:36;;;;;;;58.42;20.88;;;5.80;99.90;;;;;;4831208;29;20061;-77
2023/11/20 09:00:14;;;;;;;65.72;21.30;;;6.00;99.90;;;;;;4830540;29;20133;-77
2023/11/20 09:02:44;;;;;;;35.30;15.38;;;5.90;99.90;;;;;;4832523;29;20060;-77
2023/11/20 09:05:13;;;;;;;29.92;15.05;;;6.00;99.90;;;;;;4850319;29;20060;-77
2023/11/20 09:07:42;;;;;;;30.80;14.48;;;6.00;99.90;;;;;;4817712;29;20052;-77
2023/11/20 09:10:12;;;;;;;63.45;22.08;;;6.10;99.90;;;;;;4835115;29;20918;-77
2023/11/20 09:12:41;;;;;;;92.47;30.58;;;6.20;99.90;;;;;;4830624;29;20201;-77
2023/11/20 09:15:12;;;;;;;78.18;27.55;;;6.20;99.90;;;;;;4829412;29;20049;-78
2023/11/20 09:17:42;;;;;;;43.30;16.90;;;6.20;99.90;;;;;;4835774;29;20148;-77
2023/11/20 09:20:12;;;;;;;84.35;27.85;;;6.20;99.90;;;;;;4830918;29;20057;-78
2023/11/20 09:22:41;;;;;;;113.18;37.63;;;6.30;99.90;;;;;;4832133;29;20049;-78
2023/11/20 09:25:09;;;;;;;40.25;17.05;;;6.30;99.90;;;;;;4830477;29;20061;-75
2023/11/20 09:27:38;;;;;;;30.90;14.50;;;6.30;99.90;;;;;;4822090;29;20076;-76
2023/11/20 09:30:08;;;;;;;42.03;17.27;;;6.50;99.90;;;;;;4819937;29;20537;-75
2023/11/20 09:32:38;;;;;;;35.17;14.40;;;6.40;99.90;;;;;;4830048;29;20041;-76
2023/11/20 09:35:08;;;;;;;32.80;14.57;;;6.60;99.90;;;;;;4805925;29;20547;-76
2023/11/20 09:37:39;;;;;;;49.58;18.25;;;6.60;99.90;;;;;;4819366;29;20053;-75
2023/11/20 09:40:11;;;;;;;43.33;17.45;;;6.60;99.90;;;;;;4818972;29;20061;-77
2023/11/20 09:42:43;;;;;;;29.50;14.13;;;6.60;99.90;;;;;;4833930;29;20049;-75
2023/11/20 09:45:25;;;;;;;27.88;13.27;;;6.60;99.90;;;;;;4819339;29;20473;-75
2023/11/20 09:47:56;;;;;;;28.75;13.90;;;6.70;99.90;;;;;;4819507;29;20065;-75
2023/11/20 09:50:28;;;;;;;26.02;12.82;;;6.70;99.90;;;;;;4822273;29;22633;-75
2023/11/20 09:52:58;;;;;;;25.67;12.30;;;6.80;99.90;;;;;;4821337;29;20064;-75
2023/11/20 09:55:27;;;;;;;29.40;13.88;;;6.90;99.90;;;;;;4822689;29;20061;-75
2023/11/20 09:57:56;;;;;;;32.45;14.32;;;7.10;99.90;;;;;;4835893;29;20083;-75
2023/11/20 10:00:25;;;;;;;28.58;13.52;;;7.20;99.90;;;;;;4819993;29;20734;-75
2023/11/20 10:02:55;;;;;;;26.27;12.75;;;7.30;99.90;;;;;;4817301;29;20087;-75
2023/11/20 10:05:29;;;;;;;30.73;14.73;;;7.40;99.90;;;;;;4819204;29;20057;-75
2023/11/20 10:08:02;;;;;;;30.13;14.95;;;7.70;99.90;;;;;;4803588;29;20202;-75
2023/11/20 10:10:33;;;;;;;31.05;14.43;;;7.80;99.90;;;;;;4818418;29;20164;-75
2023/11/20 10:13:07;;;;;;;32.92;15.07;;;7.90;99.90;;;;;;4821116;29;20092;-77
2023/11/20 10:15:37;;;;;;;39.80;17.05;;;8.20;99.90;;;;;;4805869;29;20701;-75
2023/11/20 10:18:07;;;;;;;31.52;15.05;;;8.30;99.90;;;;;;4821470;29;22379;-76
2023/11/20 10:20:48;;;;;;;51.92;28.17;;;8.40;99.90;;;;;;4821642;29;20065;-75
2023/11/20 10:23:18;;;;;;;49.13;20.98;;;8.40;99.90;;;;;;4837353;29;20189;-75
2023/11/20 10:25:47;;;;;;;33.72;16.50;;;8.50;99.90;;;;;;4829679;29;20212;-76
2023/11/20 10:28:15;;;;;;;37.38;16.23;;;8.60;99.90;;;;;;4834031;29;20049;-76
2023/11/20 10:30:45;;;;;;;32.40;14.07;;;8.60;99.90;;;;;;4835914;29;20057;-76
2023/11/20 10:33:19;;;;;;;29.20;14.88;;;8.60;99.90;;;;;;4817099;29;20690;-76
2023/11/20 10:35:48;;;;;;;31.85;13.90;;;8.60;99.90;;;;;;4812610;29;20159;-76
2023/11/20 10:38:17;;;;;;;34.25;14.25;;;8.60;99.90;;;;;;4833118;29;20081;-75
2023/11/20 10:40:48;;;;;;;28.23;14.27;;;8.60;99.90;;;;;;4817937;29;20163;-75
2023/11/20 10:43:17;;;;;;;29.25;14.02;;;8.60;99.90;;;;;;4801416;29;20109;-76
2023/11/20 10:45:45;;;;;;;25.00;12.82;;;8.60;99.90;;;;;;4823818;29;20049;-75
2023/11/20 10:48:14;;;;;;;23.25;13.80;;;8.60;99.90;;;;;;4833570;29;20060;-75
2023/11/20 10:50:48;;;;;;;27.60;12.43;;;8.70;99.90;;;;;;4823096;29;20062;-77
2023/11/20 10:53:18;;;;;;;29.85;12.25;;;8.60;99.90;;;;;;4824352;29;20061;-75
2023/11/20 10:55:52;;;;;;;20.98;10.50;;;8.60;99.90;;;;;;4818138;29;20053;-75
2023/11/20 10:58:20;;;;;;;21.05;10.63;;;8.60;99.90;;;;;;4819470;29;20053;-76
2023/11/20 11:00:49;;;;;;;24.15;12.00;;;8.60;99.90;;;;;;4828599;29;20054;-77
2023/11/20 11:03:19;;;;;;;22.55;11.55;;;8.60;99.90;;;;;;4803253;29;20057;-75
2023/11/20 11:05:51;;;;;;;24.23;11.55;;;8.60;99.90;;;;;;4815135;29;22342;-76
2023/11/20 11:08:22;;;;;;;24.92;11.70;;;8.60;99.90;;;;;;4809387;29;20607;-76
2023/11/20 11:10:53;;;;;;;22.05;12.80;;;8.60;99.90;;;;;;4817562;29;20731;-76
2023/11/20 11:13:26;;;;;;;24.73;11.32;;;8.60;99.90;;;;;;4818516;29;20053;-76
2023/11/20 11:15:57;;;;;;;23.02;11.77;;;8.60;99.90;;;;;;4817184;29;20057;-76
2023/11/20 11:18:29;;;;;;;25.20;11.73;;;8.60;99.90;;;;;;4817485;29;20517;-75
2023/11/20 11:21:00;;;;;;;20.92;10.80;;;8.60;99.90;;;;;;4819821;29;20295;-76
2023/11/20 11:23:35;;;;;;;23.25;10.60;;;8.60;99.90;;;;;;4815063;29;20144;-76
2023/11/20 11:26:15;;;;;;;22.02;9.73;;;8.80;99.90;;;;;;4818458;29;20053;-76
2023/11/20 11:28:48;;;;;;;21.98;10.40;;;8.90;99.90;;;;;;4818682;29;20132;-76
2023/11/20 11:31:17;;;;;;;19.83;9.13;;;9.00;99.90;;;;;;4817477;29;20592;-75
2023/11/20 11:34:18;;;;;;;17.63;9.30;;;9.10;99.90;;;;;;4801837;29;20057;-75
2023/11/20 11:36:57;;;;;;;18.42;9.00;;;9.20;99.90;;;;;;4828763;29;20087;-76
2023/11/20 11:39:31;;;;;;;17.25;8.32;;;9.20;99.90;;;;;;4815607;29;20061;-75
2023/11/20 11:42:11;;;;;;;19.77;8.85;;;9.20;99.90;;;;;;4818625;29;20067;-76
2023/11/20 11:44:53;;;;;;;14.60;7.75;;;9.30;99.90;;;;;;4799327;29;20103;-76
2023/11/20 11:47:22;;;;;;;15.63;7.05;;;9.30;99.90;;;;;;4823315;29;20829;-78
2023/11/20 11:49:51;;;;;;;17.83;8.25;;;9.30;99.90;;;;;;4822335;29;20193;-77
2023/11/20 11:52:26;;;;;;;18.35;7.13;;;9.30;99.90;;;;;;4821318;29;20096;-77
2023/11/20 11:55:24;;;;;;;14.38;7.10;;;9.30;99.90;;;;;;4843879;29;20193;-78
2023/11/20 11:57:58;;;;;;;12.32;6.28;;;9.40;99.90;;;;;;4802349;29;21050;-77
2023/11/20 12:00:27;;;;;;;;;;;9.40;99.90;;;;;;4834833;29;20066;-77
2023/11/20 12:03:00;;;;;;;11.95;6.25;;;9.50;99.90;;;;;;4841617;29;19971;-77
2023/11/20 12:05:30;;;;;;;15.60;6.43;;;9.60;99.90;;;;;;4810931;29;20057;-78
2023/11/20 12:08:03;;;;;;;16.95;7.50;;;9.70;99.90;;;;;;4816750;29;20184;-78
2023/11/20 12:10:46;;;;;;;16.25;6.57;;;9.60;99.90;;;;;;4831724;29;22291;-77
2023/11/20 12:13:16;;;;;;;20.30;8.02;;;9.60;99.90;;;;;;4804267;29;20057;-79
2023/11/20 12:15:47;;;;;;;15.70;7.07;;;9.60;99.90;;;;;;4826906;29;20490;-77
2023/11/20 12:18:23;;;;;;;12.88;6.78;;;9.70;99.90;;;;;;4836031;29;20047;-78
2023/11/20 12:21:08;;;;;;;13.48;6.53;;;9.80;99.90;;;;;;4837725;29;20053;-78
2023/11/20 12:23:39;;;;;;;12.00;6.45;;;9.80;99.90;;;;;;4841997;29;20053;-78
2023/11/20 12:26:09;;;;;;;10.93;6.00;;;9.80;99.90;;;;;;4824530;29;20090;-78
2023/11/20 12:28:40;;;;;;;11.20;6.07;;;9.90;99.90;;;;;;4823376;29;20195;-78
2023/11/20 12:31:10;;;;;;;12.98;7.22;;;9.80;99.90;;;;;;4806578;29;20064;-77
2023/11/20 12:33:41;;;;;;;14.55;6.93;;;9.90;99.90;;;;;;4823684;29;20097;-79
2023/11/20 12:36:11;;;;;;;17.52;6.65;;;9.90;99.90;;;;;;4824080;29;20564;-79
2023/11/20 12:38:45;;;;;;;11.73;6.35;;;10.00;99.90;;;;;;4823967;29;20058;-78
2023/11/20 12:41:15;;;;;;;18.33;8.75;;;10.00;99.90;;;;;;4819346;29;20518;-78
2023/11/20 12:43:44;;;;;;;23.65;10.13;;;9.90;99.90;;;;;;4809316;29;20217;-77
2023/11/20 12:46:16;;;;;;;88.63;38.15;;;9.90;99.90;;;;;;4825548;29;20057;-77
2023/11/20 12:48:46;;;;;;;29.10;14.63;;;9.90;99.90;;;;;;4812073;29;20057;-78
2023/11/20 12:51:15;;;;;;;15.40;8.85;;;9.90;99.90;;;;;;4815457;29;20049;-78